Laguepe — 9HAI9 — position and weather

sailwx.info

Track history (hours):
 
Tides and Currents Weather Stations Pressure Air Temp Water Temp Dewpoint Dewpoint Depression Visibility Wind Speed Wind Dir Waves Ship Positions

Laguepe

Last reported at 2017-May-24 03:58 UTC. Time now 2017-May-24 04:07 UTC.
Position N 43°15' E 007°01'.

Length 81 m; draft 2.8 m.

Type: Cargo ship. MMSI: 256681000.

Date/timePositionNaut miles runAvg speedWind from/ knotsBaromVisibWave heightAir tempDewpointWater temp
2017-May-24 03:58N 43°15' E 007°01'4 7.7
2017-May-24 03:30N 43°17' E 007°05'4 7.7
2017-May-24 03:00N 43°20' E 007°09'4 7.7
2017-May-24 02:30N 43°22' E 007°13'4 7.6
2017-May-24 02:00N 43°24' E 007°18'4 7.7
2017-May-24 01:30N 43°26' E 007°22'4 7.8
2017-May-24 01:00N 43°29' E 007°26'4 8.0
2017-May-24 00:30N 43°31' E 007°30'4 8.1
2017-May-24 00:00N 43°34' E 007°35'4 8.1
2017-May-23 23:30N 43°36' E 007°39'4 8.0
2017-May-23 23:00N 43°39' E 007°44'4 8.0
2017-May-23 22:30N 43°41' E 007°48'4 7.9
2017-May-23 22:00N 43°44' E 007°52'4 7.7
2017-May-23 21:30N 43°46' E 007°56'5 7.6
2017-May-23 20:51N 43°49' E 008°02'3 7.5
2017-May-23 20:30N 43°51' E 008°05'4 7.4
2017-May-23 20:00N 43°53' E 008°09'4 7.2
2017-May-23 19:30N 43°55' E 008°13'4 7.1
2017-May-23 19:00N 43°58' E 008°16'4 7.0
2017-May-23 18:30N 44°00' E 008°19'4 7.1
2017-May-23 18:00N 44°03' E 008°22'4 6.9
2017-May-23 17:30N 44°06' E 008°25'3 6.9
2017-May-23 17:00N 44°09' E 008°28'3 6.9
2017-May-23 16:30N 44°12' E 008°31'4 7.3
2017-May-23 16:00N 44°15' E 008°31'4 7.6
2017-May-23 15:30N 44°19' E 008°30'0 0.7
2017-May-23 14:51N 44°19' E 008°30'0 0.0
2017-May-23 13:51N 44°19' E 008°30'0 0.0
2017-May-23 13:21N 44°19' E 008°30'0 0.0
2017-May-23 13:00N 44°19' E 008°30'0 0.0
2017-May-23 10:54N 44°19' E 008°30'0 0.0
2017-May-23 09:42N 44°19' E 008°30'0 0.0
2017-May-23 09:30N 44°19' E 008°30'0 0.0
2017-May-23 09:00N 44°19' E 008°30'0 0.0
2017-May-23 08:00N 44°19' E 008°30'0 0.0
2017-May-23 07:24N 44°19' E 008°30'0 0.0
2017-May-23 07:00N 44°19' E 008°30'0 0.0
2017-May-23 06:24N 44°19' E 008°30'0 0.0
2017-May-23 05:42N 44°19' E 008°30'0 0.0
2017-May-23 05:30N 44°19' E 008°30'0 0.0
2017-May-23 04:32N 44°19' E 008°30'0 0.1
2017-May-23 04:30N 44°19' E 008°30'1 1.9
2017-May-23 04:00N 44°19' E 008°31'3 6.8
2017-May-23 03:30N 44°15' E 008°32'3 6.0
2017-May-23 03:00N 44°12' E 008°33'3 5.8
2017-May-23 02:30N 44°10' E 008°34'1 2.4
2017-May-23 02:00N 44°08' E 008°35'0 0.4
2017-May-23 01:30N 44°08' E 008°34'0 0.4
2017-May-23 01:00N 44°08' E 008°34'0 0.4
2017-May-23 00:30N 44°08' E 008°34'0 0.3
2017-May-23 00:00N 44°08' E 008°34'0 0.3
2017-May-22 23:30N 44°08' E 008°34'0 0.4
2017-May-22 22:59N 44°07' E 008°34'0 0.3
2017-May-22 22:25N 44°07' E 008°34'0 0.3
2017-May-22 22:00N 44°07' E 008°34'0 0.4
2017-May-22 21:28N 44°07' E 008°34'3 7.4
2017-May-22 21:00N 44°04' E 008°32'6 8.7
2017-May-22 20:17N 44°00' E 008°25'3 8.7
2017-May-22 20:00N 43°59' E 008°22'4 8.7
2017-May-22 19:30N 43°56' E 008°17'4 8.7
2017-May-22 19:00N 43°54' E 008°12'4 8.7
2017-May-22 18:30N 43°51' E 008°07'4 8.5
2017-May-22 18:00N 43°49' E 008°03'4 8.4
2017-May-22 17:30N 43°47' E 007°58'4 8.4
2017-May-22 17:00N 43°45' E 007°53'5 8.5
2017-May-22 16:28N 43°43' E 007°47'4 8.5
2017-May-22 16:00N 43°42' E 007°41'4 8.5
2017-May-22 15:30N 43°40' E 007°36'4 8.7
2017-May-22 15:00N 43°39' E 007°30'7 7.3
2017-May-22 14:00N 43°36' E 007°21'3 6.5
2017-May-22 13:30N 43°35' E 007°17'3 6.7
2017-May-22 13:00N 43°33' E 007°13'3 6.7
2017-May-22 12:30N 43°30' E 007°10'3 6.5
2017-May-22 12:00N 43°28' E 007°07'3 6.3
2017-May-22 11:30N 43°25' E 007°04'4 6.5
2017-May-22 10:56N 43°23' E 007°01'28 6.3
2017-May-22 06:28N 43°02' E 006°36'3 6.0
2017-May-22 06:00N 42°59' E 006°33'3 5.7
2017-May-22 05:30N 42°58' E 006°30'3 5.6
2017-May-22 05:00N 42°57' E 006°26'3 6.3
2017-May-22 04:30N 42°57' E 006°22'3 6.6
2017-May-22 04:00N 42°57' E 006°18'4 6.5
2017-May-22 03:18N 42°57' E 006°11'2 6.4
2017-May-22 02:57N 42°57' E 006°08'3 6.5
2017-May-22 02:30N 42°57' E 006°04'3 6.6
2017-May-22 02:00N 42°58' E 006°00'3 6.5
2017-May-22 01:30N 42°59' E 005°56'3 6.6
2017-May-22 01:00N 43°00' E 005°52'4 6.0
2017-May-22 00:19N 43°02' E 005°46'3 6.5
2017-May-21 23:47N 43°03' E 005°42'2 6.6
2017-May-21 23:30N 43°03' E 005°39'4 6.6
2017-May-21 22:50N 43°05' E 005°34'2 6.7
2017-May-21 22:28N 43°05' E 005°30'3 6.7
2017-May-21 22:00N 43°06' E 005°26'4 6.8
2017-May-21 21:22N 43°08' E 005°21'2 6.7
2017-May-21 21:00N 43°09' E 005°18'4 6.8
2017-May-21 20:28N 43°10' E 005°13'4 6.5
2017-May-21 19:56N 43°12' E 005°09'3 6.5
2017-May-21 19:30N 43°14' E 005°07'4 6.5
2017-May-21 18:53N 43°17' E 005°03'3 7.5
2017-May-21 18:27N 43°19' E 004°60'4 8.6
2017-May-21 18:00N 43°23' E 004°57'5 7.5
2017-May-21 17:20N 43°23' E 004°50'1 4.3
2017-May-21 17:00N 43°23' E 004°49'1 1.2
2017-May-21 16:30N 43°23' E 004°48'4 8.2
2017-May-21 16:00N 43°27' E 004°44'6 8.6
2017-May-21 15:19N 43°32' E 004°43'3 8.9
2017-May-21 14:59N 43°35' E 004°41'4 8.3
2017-May-21 14:30N 43°38' E 004°37'  
2017-May-18 08:38N 43°40' E 004°36'2 6.0
2017-May-18 08:15N 43°38' E 004°37'2 7.1
2017-May-18 08:00N 43°37' E 004°39'4 6.0
2017-May-18 07:25N 43°34' E 004°42'3 7.3
2017-May-18 07:00N 43°31' E 004°44'4 7.6
2017-May-18 06:30N 43°28' E 004°45'3 6.7
2017-May-18 06:00N 43°24' E 004°46'2 4.9
2017-May-18 05:30N 43°23' E 004°49'0 0.3
2017-May-18 05:00N 43°23' E 004°49'3 6.8
2017-May-18 04:30N 43°24' E 004°53'4 7.8
2017-May-18 04:00N 43°22' E 004°58'3 5.8
2017-May-18 03:30N 43°19' E 004°59'3 6.5
2017-May-18 03:00N 43°16' E 005°01'3 6.8
2017-May-18 02:30N 43°13' E 005°02'3 6.2
2017-May-18 02:00N 43°10' E 005°02'3 6.7
2017-May-18 01:30N 43°07' E 004°59'3 6.8
2017-May-18 01:00N 43°04' E 004°57'3 6.9
2017-May-18 00:30N 43°01' E 004°55'3 6.8
2017-May-18 00:00N 42°58' E 004°53'3 5.4
2017-May-17 23:30N 42°56' E 004°50'0 0.9
2017-May-17 23:00N 42°56' E 004°51'1 1.0
2017-May-17 22:30N 42°56' E 004°52'0 1.0
2017-May-17 22:00N 42°56' E 004°52'0 0.9
2017-May-17 21:30N 42°56' E 004°53'0 0.9
2017-May-17 21:00N 42°56' E 004°54'0 0.8
2017-May-17 20:30N 42°56' E 004°54'0 0.7
2017-May-17 20:00N 42°56' E 004°55'0 0.9
2017-May-17 19:30N 42°56' E 004°55'0 0.8
2017-May-17 19:00N 42°56' E 004°56'0 0.8
2017-May-17 18:30N 42°56' E 004°56'0 0.8
2017-May-17 18:00N 42°56' E 004°57'0 0.5
2017-May-17 17:30N 42°56' E 004°57'0 0.4
2017-May-17 16:27N 42°56' E 004°58'1 0.4
2017-May-17 14:27N 42°56' E 004°59'1 0.3
2017-May-17 12:28N 42°56' E 004°60'1 0.5
2017-May-17 11:00N 42°56' E 005°00'3 5.0
2017-May-17 10:28N 42°55' E 005°04'10 7.4
2017-May-17 09:08N 42°49' E 005°15'5 7.1
2017-May-17 08:28N 42°47' E 005°20'147 8.2
2017-May-16 14:30N 40°39' E 006°58'10 8.7
2017-May-16 13:24N 40°31' E 007°05'4 8.8
2017-May-16 12:59N 40°28' E 007°07'5 8.9
2017-May-16 12:29N 40°24' E 007°10'4 8.8
2017-May-16 12:00N 40°20' E 007°12'5 8.7
2017-May-16 11:29N 40°16' E 007°15'4 8.8
2017-May-16 10:59N 40°12' E 007°18'4 8.8
2017-May-16 10:29N 40°08' E 007°21'4 8.7
2017-May-16 09:59N 40°05' E 007°24'98 8.0
2017-May-15 21:45N 38°48' E 008°43'2 8.6
2017-May-15 21:30N 38°48' E 008°46'4 8.5
2017-May-15 21:00N 38°49' E 008°51'4 8.8
2017-May-15 20:30N 38°52' E 008°56'4 8.9
2017-May-15 19:59N 38°54' E 009°01'4 8.5
2017-May-15 19:29N 38°57' E 009°04'4 8.3
2017-May-15 19:00N 39°01' E 009°07'5 9.1
2017-May-15 18:29N 39°06' E 009°07'4 8.5
2017-May-15 18:00N 39°10' E 009°06'4 7.3
2017-May-15 17:29N 39°13' E 009°04'0 0.5
2017-May-15 17:00N 39°13' E 009°03'0 0.0
2017-May-15 16:28N 39°13' E 009°03'0 0.0
2017-May-15 15:58N 39°13' E 009°03'0 0.0
2017-May-15 15:28N 39°13' E 009°03'0 0.0
2017-May-15 14:58N 39°13' E 009°03'0 0.0
2017-May-15 13:58N 39°13' E 009°03'0 0.0
2017-May-15 13:28N 39°13' E 009°03'0 0.0
2017-May-15 12:58N 39°13' E 009°03'0 0.0
2017-May-15 12:28N 39°13' E 009°03'0 0.0
2017-May-15 11:58N 39°13' E 009°03'0 0.0
2017-May-15 11:28N 39°13' E 009°03'0 0.0
2017-May-15 10:58N 39°13' E 009°03'0 0.0
2017-May-15 10:28N 39°13' E 009°03'0 0.0
2017-May-15 09:58N 39°13' E 009°03'0 0.0
2017-May-15 09:28N 39°13' E 009°03'0 0.0
2017-May-15 08:58N 39°13' E 009°03'0 0.0
2017-May-15 08:28N 39°13' E 009°03'0 0.0
2017-May-15 07:58N 39°13' E 009°03'0 0.0
2017-May-15 07:28N 39°13' E 009°03'0 0.0
2017-May-15 06:58N 39°13' E 009°03'0 0.0
2017-May-15 06:28N 39°13' E 009°03'0 0.0
2017-May-15 05:55N 39°13' E 009°03'0 0.0
2017-May-15 05:28N 39°13' E 009°03'0 0.0
2017-May-15 04:58N 39°13' E 009°03'0 0.0
2017-May-15 04:25N 39°13' E 009°03'0 0.0
2017-May-15 03:58N 39°13' E 009°03'0 0.0
2017-May-15 03:28N 39°13' E 009°03'0 0.0
2017-May-15 02:58N 39°13' E 009°03'0 0.0
2017-May-15 02:28N 39°13' E 009°03'0 0.0
2017-May-15 01:58N 39°13' E 009°03'0 0.0
2017-May-15 01:28N 39°13' E 009°03'0 0.0
2017-May-15 00:58N 39°13' E 009°03'0 0.0
2017-May-15 00:28N 39°13' E 009°03'0 0.0
2017-May-14 23:58N 39°13' E 009°03'0 0.0
2017-May-14 23:28N 39°13' E 009°03'0 0.0
2017-May-14 22:58N 39°13' E 009°03'0 0.0
2017-May-14 22:28N 39°13' E 009°03'0 0.0
2017-May-14 21:58N 39°13' E 009°03'0 0.0
2017-May-14 21:28N 39°13' E 009°03'0 0.0
2017-May-14 20:58N 39°13' E 009°03'0 0.0
2017-May-14 20:28N 39°13' E 009°03'0 0.0
2017-May-14 19:58N 39°13' E 009°03'0 0.0
2017-May-14 19:28N 39°13' E 009°03'0 0.0
2017-May-14 18:58N 39°13' E 009°03'0 0.0
2017-May-14 18:28N 39°13' E 009°03'0 0.0
2017-May-14 17:58N 39°13' E 009°03'0 0.0
2017-May-14 17:28N 39°13' E 009°03'0 0.0
2017-May-14 16:58N 39°13' E 009°03'0 0.0
2017-May-14 16:28N 39°13' E 009°03'0 0.0
2017-May-14 15:58N 39°13' E 009°03'0 0.0
2017-May-14 15:28N 39°13' E 009°03'0 0.0
2017-May-14 14:58N 39°13' E 009°03'0 0.0
2017-May-14 14:30N 39°13' E 009°03'0 0.0
2017-May-14 13:29N 39°13' E 009°03'0 0.0
2017-May-14 12:59N 39°13' E 009°03'2 4.7
2017-May-14 12:30N 39°12' E 009°06'2 3.9
2017-May-14 12:00N 39°10' E 009°06'1 2.4
2017-May-14 11:30N 39°08' E 009°06'3 5.3
2017-May-14 11:00N 39°06' E 009°07'2 5.0
2017-May-14 10:30N 39°04' E 009°08'3 5.6
2017-May-14 10:00N 39°01' E 009°08'3 5.7
2017-May-14 09:30N 38°58' E 009°07'3 6.5
2017-May-14 09:00N 38°56' E 009°04'3 6.6
2017-May-14 08:29N 38°54' E 009°00'3 6.5
2017-May-14 08:00N 38°52' E 008°57'3 6.6
2017-May-14 07:29N 38°49' E 008°54'3 6.2
2017-May-14 06:56N 38°48' E 008°50'3 6.5
2017-May-14 06:30N 38°48' E 008°47'  
Track history (hours):
 
Tides and Currents Weather Stations Pressure Air Temp Water Temp Dewpoint Dewpoint Depression Visibility Wind Speed Wind Dir Waves Ship Positions

Laguepe

Last reported at 2017-May-24 03:58 UTC. Time now 2017-May-24 04:07 UTC.
Position N 43°15' E 007°01'.

Length 81 m; draft 2.8 m.

Type: Cargo ship. MMSI: 256681000.

Date/timePositionNaut miles runAvg speedWind from/ knotsBaromVisibWave heightAir tempDewpointWater temp
2017-May-24 03:58N 43°15' E 007°01'4 7.7
2017-May-24 03:30N 43°17' E 007°05'4 7.7
2017-May-24 03:00N 43°20' E 007°09'4 7.7
2017-May-24 02:30N 43°22' E 007°13'4 7.6
2017-May-24 02:00N 43°24' E 007°18'4 7.7
2017-May-24 01:30N 43°26' E 007°22'4 7.8
2017-May-24 01:00N 43°29' E 007°26'4 8.0
2017-May-24 00:30N 43°31' E 007°30'4 8.1
2017-May-24 00:00N 43°34' E 007°35'4 8.1
2017-May-23 23:30N 43°36' E 007°39'4 8.0
2017-May-23 23:00N 43°39' E 007°44'4 8.0
2017-May-23 22:30N 43°41' E 007°48'4 7.9
2017-May-23 22:00N 43°44' E 007°52'4 7.7
2017-May-23 21:30N 43°46' E 007°56'5 7.6
2017-May-23 20:51N 43°49' E 008°02'3 7.5
2017-May-23 20:30N 43°51' E 008°05'4 7.4
2017-May-23 20:00N 43°53' E 008°09'4 7.2
2017-May-23 19:30N 43°55' E 008°13'4 7.1
2017-May-23 19:00N 43°58' E 008°16'4 7.0
2017-May-23 18:30N 44°00' E 008°19'4 7.1
2017-May-23 18:00N 44°03' E 008°22'4 6.9
2017-May-23 17:30N 44°06' E 008°25'3 6.9
2017-May-23 17:00N 44°09' E 008°28'3 6.9
2017-May-23 16:30N 44°12' E 008°31'4 7.3
2017-May-23 16:00N 44°15' E 008°31'4 7.6
2017-May-23 15:30N 44°19' E 008°30'0 0.7
2017-May-23 14:51N 44°19' E 008°30'0 0.0
2017-May-23 13:51N 44°19' E 008°30'0 0.0
2017-May-23 13:21N 44°19' E 008°30'0 0.0
2017-May-23 13:00N 44°19' E 008°30'0 0.0
2017-May-23 10:54N 44°19' E 008°30'0 0.0
2017-May-23 09:42N 44°19' E 008°30'0 0.0
2017-May-23 09:30N 44°19' E 008°30'0 0.0
2017-May-23 09:00N 44°19' E 008°30'0 0.0
2017-May-23 08:00N 44°19' E 008°30'0 0.0
2017-May-23 07:24N 44°19' E 008°30'0 0.0
2017-May-23 07:00N 44°19' E 008°30'0 0.0
2017-May-23 06:24N 44°19' E 008°30'0 0.0
2017-May-23 05:42N 44°19' E 008°30'0 0.0
2017-May-23 05:30N 44°19' E 008°30'0 0.0
2017-May-23 04:32N 44°19' E 008°30'0 0.1
2017-May-23 04:30N 44°19' E 008°30'1 1.9
2017-May-23 04:00N 44°19' E 008°31'3 6.8
2017-May-23 03:30N 44°15' E 008°32'3 6.0
2017-May-23 03:00N 44°12' E 008°33'3 5.8
2017-May-23 02:30N 44°10' E 008°34'1 2.4
2017-May-23 02:00N 44°08' E 008°35'0 0.4
2017-May-23 01:30N 44°08' E 008°34'0 0.4
2017-May-23 01:00N 44°08' E 008°34'0 0.4
2017-May-23 00:30N 44°08' E 008°34'0 0.3
2017-May-23 00:00N 44°08' E 008°34'0 0.3
2017-May-22 23:30N 44°08' E 008°34'0 0.4
2017-May-22 22:59N 44°07' E 008°34'0 0.3
2017-May-22 22:25N 44°07' E 008°34'0 0.3
2017-May-22 22:00N 44°07' E 008°34'0 0.4
2017-May-22 21:28N 44°07' E 008°34'3 7.4
2017-May-22 21:00N 44°04' E 008°32'6 8.7
2017-May-22 20:17N 44°00' E 008°25'3 8.7
2017-May-22 20:00N 43°59' E 008°22'4 8.7
2017-May-22 19:30N 43°56' E 008°17'4 8.7
2017-May-22 19:00N 43°54' E 008°12'4 8.7
2017-May-22 18:30N 43°51' E 008°07'4 8.5
2017-May-22 18:00N 43°49' E 008°03'4 8.4
2017-May-22 17:30N 43°47' E 007°58'4 8.4
2017-May-22 17:00N 43°45' E 007°53'5 8.5
2017-May-22 16:28N 43°43' E 007°47'4 8.5
2017-May-22 16:00N 43°42' E 007°41'4 8.5
2017-May-22 15:30N 43°40' E 007°36'4 8.7
2017-May-22 15:00N 43°39' E 007°30'7 7.3
2017-May-22 14:00N 43°36' E 007°21'3 6.5
2017-May-22 13:30N 43°35' E 007°17'3 6.7
2017-May-22 13:00N 43°33' E 007°13'3 6.7
2017-May-22 12:30N 43°30' E 007°10'3 6.5
2017-May-22 12:00N 43°28' E 007°07'3 6.3
2017-May-22 11:30N 43°25' E 007°04'4 6.5
2017-May-22 10:56N 43°23' E 007°01'28 6.3
2017-May-22 06:28N 43°02' E 006°36'3 6.0
2017-May-22 06:00N 42°59' E 006°33'3 5.7
2017-May-22 05:30N 42°58' E 006°30'3 5.6
2017-May-22 05:00N 42°57' E 006°26'3 6.3
2017-May-22 04:30N 42°57' E 006°22'3 6.6
2017-May-22 04:00N 42°57' E 006°18'4 6.5
2017-May-22 03:18N 42°57' E 006°11'2 6.4
2017-May-22 02:57N 42°57' E 006°08'3 6.5
2017-May-22 02:30N 42°57' E 006°04'3 6.6
2017-May-22 02:00N 42°58' E 006°00'3 6.5
2017-May-22 01:30N 42°59' E 005°56'3 6.6
2017-May-22 01:00N 43°00' E 005°52'4 6.0
2017-May-22 00:19N 43°02' E 005°46'3 6.5
2017-May-21 23:47N 43°03' E 005°42'2 6.6
2017-May-21 23:30N 43°03' E 005°39'4 6.6
2017-May-21 22:50N 43°05' E 005°34'2 6.7
2017-May-21 22:28N 43°05' E 005°30'3 6.7
2017-May-21 22:00N 43°06' E 005°26'4 6.8
2017-May-21 21:22N 43°08' E 005°21'2 6.7
2017-May-21 21:00N 43°09' E 005°18'4 6.8
2017-May-21 20:28N 43°10' E 005°13'4 6.5
2017-May-21 19:56N 43°12' E 005°09'3 6.5
2017-May-21 19:30N 43°14' E 005°07'4 6.5
2017-May-21 18:53N 43°17' E 005°03'3 7.5
2017-May-21 18:27N 43°19' E 004°60'4 8.6
2017-May-21 18:00N 43°23' E 004°57'5 7.5
2017-May-21 17:20N 43°23' E 004°50'1 4.3
2017-May-21 17:00N 43°23' E 004°49'1 1.2
2017-May-21 16:30N 43°23' E 004°48'4 8.2
2017-May-21 16:00N 43°27' E 004°44'6 8.6
2017-May-21 15:19N 43°32' E 004°43'3 8.9
2017-May-21 14:59N 43°35' E 004°41'4 8.3
2017-May-21 14:30N 43°38' E 004°37'  
2017-May-18 08:38N 43°40' E 004°36'2 6.0
2017-May-18 08:15N 43°38' E 004°37'2 7.1
2017-May-18 08:00N 43°37' E 004°39'4 6.0
2017-May-18 07:25N 43°34' E 004°42'3 7.3
2017-May-18 07:00N 43°31' E 004°44'4 7.6
2017-May-18 06:30N 43°28' E 004°45'3 6.7
2017-May-18 06:00N 43°24' E 004°46'2 4.9
2017-May-18 05:30N 43°23' E 004°49'0 0.3
2017-May-18 05:00N 43°23' E 004°49'3 6.8
2017-May-18 04:30N 43°24' E 004°53'4 7.8
2017-May-18 04:00N 43°22' E 004°58'3 5.8
2017-May-18 03:30N 43°19' E 004°59'3 6.5
2017-May-18 03:00N 43°16' E 005°01'3 6.8
2017-May-18 02:30N 43°13' E 005°02'3 6.2
2017-May-18 02:00N 43°10' E 005°02'3 6.7
2017-May-18 01:30N 43°07' E 004°59'3 6.8
2017-May-18 01:00N 43°04' E 004°57'3 6.9
2017-May-18 00:30N 43°01' E 004°55'3 6.8
2017-May-18 00:00N 42°58' E 004°53'3 5.4
2017-May-17 23:30N 42°56' E 004°50'0 0.9
2017-May-17 23:00N 42°56' E 004°51'1 1.0
2017-May-17 22:30N 42°56' E 004°52'0 1.0
2017-May-17 22:00N 42°56' E 004°52'0 0.9
2017-May-17 21:30N 42°56' E 004°53'0 0.9
2017-May-17 21:00N 42°56' E 004°54'0 0.8
2017-May-17 20:30N 42°56' E 004°54'0 0.7
2017-May-17 20:00N 42°56' E 004°55'0 0.9
2017-May-17 19:30N 42°56' E 004°55'0 0.8
2017-May-17 19:00N 42°56' E 004°56'0 0.8
2017-May-17 18:30N 42°56' E 004°56'0 0.8
2017-May-17 18:00N 42°56' E 004°57'0 0.5
2017-May-17 17:30N 42°56' E 004°57'0 0.4
2017-May-17 16:27N 42°56' E 004°58'1 0.4
2017-May-17 14:27N 42°56' E 004°59'1 0.3
2017-May-17 12:28N 42°56' E 004°60'1 0.5
2017-May-17 11:00N 42°56' E 005°00'3 5.0
2017-May-17 10:28N 42°55' E 005°04'10 7.4
2017-May-17 09:08N 42°49' E 005°15'5 7.1
2017-May-17 08:28N 42°47' E 005°20'147 8.2
2017-May-16 14:30N 40°39' E 006°58'10 8.7
2017-May-16 13:24N 40°31' E 007°05'4 8.8
2017-May-16 12:59N 40°28' E 007°07'5 8.9
2017-May-16 12:29N 40°24' E 007°10'4 8.8
2017-May-16 12:00N 40°20' E 007°12'5 8.7
2017-May-16 11:29N 40°16' E 007°15'4 8.8
2017-May-16 10:59N 40°12' E 007°18'4 8.8
2017-May-16 10:29N 40°08' E 007°21'4 8.7
2017-May-16 09:59N 40°05' E 007°24'98 8.0
2017-May-15 21:45N 38°48' E 008°43'2 8.6
2017-May-15 21:30N 38°48' E 008°46'4 8.5
2017-May-15 21:00N 38°49' E 008°51'4 8.8
2017-May-15 20:30N 38°52' E 008°56'4 8.9
2017-May-15 19:59N 38°54' E 009°01'4 8.5
2017-May-15 19:29N 38°57' E 009°04'4 8.3
2017-May-15 19:00N 39°01' E 009°07'5 9.1
2017-May-15 18:29N 39°06' E 009°07'4 8.5
2017-May-15 18:00N 39°10' E 009°06'4 7.3
2017-May-15 17:29N 39°13' E 009°04'0 0.5
2017-May-15 17:00N 39°13' E 009°03'0 0.0
2017-May-15 16:28N 39°13' E 009°03'0 0.0
2017-May-15 15:58N 39°13' E 009°03'0 0.0
2017-May-15 15:28N 39°13' E 009°03'0 0.0
2017-May-15 14:58N 39°13' E 009°03'0 0.0
2017-May-15 13:58N 39°13' E 009°03'0 0.0
2017-May-15 13:28N 39°13' E 009°03'0 0.0
2017-May-15 12:58N 39°13' E 009°03'0 0.0
2017-May-15 12:28N 39°13' E 009°03'0 0.0
2017-May-15 11:58N 39°13' E 009°03'0 0.0
2017-May-15 11:28N 39°13' E 009°03'0 0.0
2017-May-15 10:58N 39°13' E 009°03'0 0.0
2017-May-15 10:28N 39°13' E 009°03'0 0.0
2017-May-15 09:58N 39°13' E 009°03'0 0.0
2017-May-15 09:28N 39°13' E 009°03'0 0.0
2017-May-15 08:58N 39°13' E 009°03'0 0.0
2017-May-15 08:28N 39°13' E 009°03'0 0.0
2017-May-15 07:58N 39°13' E 009°03'0 0.0
2017-May-15 07:28N 39°13' E 009°03'0 0.0
2017-May-15 06:58N 39°13' E 009°03'0 0.0
2017-May-15 06:28N 39°13' E 009°03'0 0.0
2017-May-15 05:55N 39°13' E 009°03'0 0.0
2017-May-15 05:28N 39°13' E 009°03'0 0.0
2017-May-15 04:58N 39°13' E 009°03'0 0.0
2017-May-15 04:25N 39°13' E 009°03'0 0.0
2017-May-15 03:58N 39°13' E 009°03'0 0.0
2017-May-15 03:28N 39°13' E 009°03'0 0.0
2017-May-15 02:58N 39°13' E 009°03'0 0.0
2017-May-15 02:28N 39°13' E 009°03'0 0.0
2017-May-15 01:58N 39°13' E 009°03'0 0.0
2017-May-15 01:28N 39°13' E 009°03'0 0.0
2017-May-15 00:58N 39°13' E 009°03'0 0.0
2017-May-15 00:28N 39°13' E 009°03'0 0.0
2017-May-14 23:58N 39°13' E 009°03'0 0.0
2017-May-14 23:28N 39°13' E 009°03'0 0.0
2017-May-14 22:58N 39°13' E 009°03'0 0.0
2017-May-14 22:28N 39°13' E 009°03'0 0.0
2017-May-14 21:58N 39°13' E 009°03'0 0.0
2017-May-14 21:28N 39°13' E 009°03'0 0.0
2017-May-14 20:58N 39°13' E 009°03'0 0.0
2017-May-14 20:28N 39°13' E 009°03'0 0.0
2017-May-14 19:58N 39°13' E 009°03'0 0.0
2017-May-14 19:28N 39°13' E 009°03'0 0.0
2017-May-14 18:58N 39°13' E 009°03'0 0.0
2017-May-14 18:28N 39°13' E 009°03'0 0.0
2017-May-14 17:58N 39°13' E 009°03'0 0.0
2017-May-14 17:28N 39°13' E 009°03'0 0.0
2017-May-14 16:58N 39°13' E 009°03'0 0.0
2017-May-14 16:28N 39°13' E 009°03'0 0.0
2017-May-14 15:58N 39°13' E 009°03'0 0.0
2017-May-14 15:28N 39°13' E 009°03'0 0.0
2017-May-14 14:58N 39°13' E 009°03'0 0.0
2017-May-14 14:30N 39°13' E 009°03'0 0.0
2017-May-14 13:29N 39°13' E 009°03'0 0.0
2017-May-14 12:59N 39°13' E 009°03'2 4.7
2017-May-14 12:30N 39°12' E 009°06'2 3.9
2017-May-14 12:00N 39°10' E 009°06'1 2.4
2017-May-14 11:30N 39°08' E 009°06'3 5.3
2017-May-14 11:00N 39°06' E 009°07'2 5.0
2017-May-14 10:30N 39°04' E 009°08'3 5.6
2017-May-14 10:00N 39°01' E 009°08'3 5.7
2017-May-14 09:30N 38°58' E 009°07'3 6.5
2017-May-14 09:00N 38°56' E 009°04'3 6.6
2017-May-14 08:29N 38°54' E 009°00'3 6.5
2017-May-14 08:00N 38°52' E 008°57'3 6.6
2017-May-14 07:29N 38°49' E 008°54'3 6.2
2017-May-14 06:56N 38°48' E 008°50'3 6.5
2017-May-14 06:30N 38°48' E 008°47'  

Dump ship's entire track history